sensor_id;sensor_type;location;lat;lon;timestamp;P1;durP1;ratioP1;P2;durP2;ratioP2
1505;SDS011;744;51.436;7.356;2023-03-14T00:02:10;4.90;;;1.00;;
1505;SDS011;744;51.436;7.356;2023-03-14T00:04:38;2.47;;;1.33;;
1505;SDS011;744;51.436;7.356;2023-03-14T00:07:04;2.27;;;1.03;;
1505;SDS011;744;51.436;7.356;2023-03-14T00:09:31;3.63;;;1.20;;
1505;SDS011;744;51.436;7.356;2023-03-14T00:11:58;6.50;;;1.50;;
1505;SDS011;744;51.436;7.356;2023-03-14T00:14:25;2.13;;;1.30;;
1505;SDS011;744;51.436;7.356;2023-03-14T00:16:52;3.47;;;1.30;;
1505;SDS011;744;51.436;7.356;2023-03-14T00:19:19;7.83;;;1.53;;
1505;SDS011;744;51.436;7.356;2023-03-14T00:21:46;4.00;;;1.60;;
1505;SDS011;744;51.436;7.356;2023-03-14T00:24:13;3.97;;;0.90;;
1505;SDS011;744;51.436;7.356;2023-03-14T00:26:40;2.60;;;1.10;;
1505;SDS011;744;51.436;7.356;2023-03-14T00:29:06;3.23;;;1.73;;
1505;SDS011;744;51.436;7.356;2023-03-14T00:31:33;9.17;;;1.40;;
1505;SDS011;744;51.436;7.356;2023-03-14T00:34:02;3.50;;;1.37;;
1505;SDS011;744;51.436;7.356;2023-03-14T00:36:29;2.20;;;1.10;;
1505;SDS011;744;51.436;7.356;2023-03-14T00:38:55;2.23;;;1.10;;
1505;SDS011;744;51.436;7.356;2023-03-14T00:41:23;3.23;;;1.33;;
1505;SDS011;744;51.436;7.356;2023-03-14T00:43:50;1.47;;;1.27;;
1505;SDS011;744;51.436;7.356;2023-03-14T00:46:17;3.10;;;1.20;;
1505;SDS011;744;51.436;7.356;2023-03-14T00:48:45;5.67;;;1.10;;
1505;SDS011;744;51.436;7.356;2023-03-14T00:51:12;2.27;;;1.30;;
1505;SDS011;744;51.436;7.356;2023-03-14T00:53:41;4.90;;;1.80;;
1505;SDS011;744;51.436;7.356;2023-03-14T00:56:10;3.80;;;1.53;;
1505;SDS011;744;51.436;7.356;2023-03-14T00:58:37;2.57;;;1.13;;
1505;SDS011;744;51.436;7.356;2023-03-14T01:01:09;2.80;;;1.23;;
1505;SDS011;744;51.436;7.356;2023-03-14T01:03:40;4.57;;;1.50;;
1505;SDS011;744;51.436;7.356;2023-03-14T01:06:10;3.30;;;1.50;;
1505;SDS011;744;51.436;7.356;2023-03-14T01:08:43;2.97;;;1.73;;
1505;SDS011;744;51.436;7.356;2023-03-14T01:11:12;3.17;;;1.33;;
1505;SDS011;744;51.436;7.356;2023-03-14T01:13:41;2.83;;;1.10;;
1505;SDS011;744;51.436;7.356;2023-03-14T01:16:10;7.57;;;1.67;;
1505;SDS011;744;51.436;7.356;2023-03-14T01:18:38;4.77;;;1.30;;
1505;SDS011;744;51.436;7.356;2023-03-14T01:23:40;4.20;;;1.17;;
1505;SDS011;744;51.436;7.356;2023-03-14T01:26:09;2.27;;;1.10;;
1505;SDS011;744;51.436;7.356;2023-03-14T01:28:38;3.40;;;0.80;;
1505;SDS011;744;51.436;7.356;2023-03-14T01:31:07;0.97;;;0.80;;
1505;SDS011;744;51.436;7.356;2023-03-14T01:33:36;4.57;;;0.70;;
1505;SDS011;744;51.436;7.356;2023-03-14T01:36:04;2.30;;;0.70;;
1505;SDS011;744;51.436;7.356;2023-03-14T01:38:31;2.83;;;1.00;;
1505;SDS011;744;51.436;7.356;2023-03-14T01:40:59;3.70;;;2.80;;
1505;SDS011;744;51.436;7.356;2023-03-14T01:43:27;3.87;;;0.97;;
1505;SDS011;744;51.436;7.356;2023-03-14T01:51:04;4.20;;;1.33;;
1505;SDS011;744;51.436;7.356;2023-03-14T01:53:35;1.80;;;1.17;;
1505;SDS011;744;51.436;7.356;2023-03-14T01:56:02;3.60;;;0.93;;
1505;SDS011;744;51.436;7.356;2023-03-14T01:58:30;1.20;;;0.70;;
1505;SDS011;744;51.436;7.356;2023-03-14T02:01:00;2.50;;;0.80;;
1505;SDS011;744;51.436;7.356;2023-03-14T02:03:28;4.20;;;2.30;;
1505;SDS011;744;51.436;7.356;2023-03-14T02:06:01;1.10;;;0.70;;
1505;SDS011;744;51.436;7.356;2023-03-14T02:08:32;1.63;;;0.77;;
1505;SDS011;744;51.436;7.356;2023-03-14T02:11:01;3.13;;;0.70;;
1505;SDS011;744;51.436;7.356;2023-03-14T02:13:28;2.00;;;0.73;;
1505;SDS011;744;51.436;7.356;2023-03-14T02:15:55;3.73;;;0.77;;
1505;SDS011;744;51.436;7.356;2023-03-14T02:18:21;5.47;;;1.23;;
1505;SDS011;744;51.436;7.356;2023-03-14T02:23:35;4.10;;;1.20;;
1505;SDS011;744;51.436;7.356;2023-03-14T02:26:34;3.23;;;1.10;;
1505;SDS011;744;51.436;7.356;2023-03-14T02:29:00;4.47;;;1.00;;
1505;SDS011;744;51.436;7.356;2023-03-14T02:31:27;2.93;;;1.47;;
1505;SDS011;744;51.436;7.356;2023-03-14T02:33:54;1.73;;;0.80;;
1505;SDS011;744;51.436;7.356;2023-03-14T02:36:22;6.30;;;2.43;;
1505;SDS011;744;51.436;7.356;2023-03-14T02:38:52;3.33;;;1.10;;
1505;SDS011;744;51.436;7.356;2023-03-14T02:41:40;3.20;;;1.83;;
1505;SDS011;744;51.436;7.356;2023-03-14T02:44:08;4.50;;;0.90;;
1505;SDS011;744;51.436;7.356;2023-03-14T02:46:35;7.10;;;1.07;;
1505;SDS011;744;51.436;7.356;2023-03-14T02:49:07;5.23;;;1.20;;
1505;SDS011;744;51.436;7.356;2023-03-14T02:51:36;3.60;;;1.10;;
1505;SDS011;744;51.436;7.356;2023-03-14T02:54:04;2.40;;;1.17;;
1505;SDS011;744;51.436;7.356;2023-03-14T02:56:31;4.20;;;1.10;;
1505;SDS011;744;51.436;7.356;2023-03-14T02:58:57;5.90;;;1.93;;
1505;SDS011;744;51.436;7.356;2023-03-14T03:01:24;3.77;;;0.97;;
1505;SDS011;744;51.436;7.356;2023-03-14T03:03:51;4.03;;;1.03;;
1505;SDS011;744;51.436;7.356;2023-03-14T03:06:18;6.40;;;1.53;;
1505;SDS011;744;51.436;7.356;2023-03-14T03:08:45;5.40;;;1.13;;
1505;SDS011;744;51.436;7.356;2023-03-14T03:11:12;2.23;;;1.07;;
1505;SDS011;744;51.436;7.356;2023-03-14T03:13:39;4.47;;;0.73;;
1505;SDS011;744;51.436;7.356;2023-03-14T03:16:06;5.23;;;1.37;;
1505;SDS011;744;51.436;7.356;2023-03-14T03:18:33;2.90;;;1.03;;
1505;SDS011;744;51.436;7.356;2023-03-14T03:21:01;2.20;;;1.03;;
1505;SDS011;744;51.436;7.356;2023-03-14T03:23:29;5.70;;;1.07;;
1505;SDS011;744;51.436;7.356;2023-03-14T03:25:56;2.70;;;1.03;;
1505;SDS011;744;51.436;7.356;2023-03-14T03:28:23;3.57;;;1.20;;
1505;SDS011;744;51.436;7.356;2023-03-14T03:30:50;5.33;;;2.10;;
1505;SDS011;744;51.436;7.356;2023-03-14T03:33:17;7.80;;;1.10;;
1505;SDS011;744;51.436;7.356;2023-03-14T03:35:46;3.13;;;1.40;;
1505;SDS011;744;51.436;7.356;2023-03-14T03:38:15;1.80;;;1.10;;
1505;SDS011;744;51.436;7.356;2023-03-14T03:40:42;4.73;;;1.30;;
1505;SDS011;744;51.436;7.356;2023-03-14T03:43:12;3.77;;;1.53;;
1505;SDS011;744;51.436;7.356;2023-03-14T03:45:39;4.73;;;1.67;;
1505;SDS011;744;51.436;7.356;2023-03-14T03:48:07;2.30;;;0.90;;
1505;SDS011;744;51.436;7.356;2023-03-14T03:50:34;2.87;;;1.13;;
1505;SDS011;744;51.436;7.356;2023-03-14T03:53:02;2.20;;;0.67;;
1505;SDS011;744;51.436;7.356;2023-03-14T03:55:29;9.10;;;2.10;;
1505;SDS011;744;51.436;7.356;2023-03-14T03:57:56;3.07;;;1.00;;
1505;SDS011;744;51.436;7.356;2023-03-14T04:00:23;2.60;;;1.10;;
1505;SDS011;744;51.436;7.356;2023-03-14T04:02:50;3.37;;;1.00;;
1505;SDS011;744;51.436;7.356;2023-03-14T04:05:17;2.87;;;1.03;;
1505;SDS011;744;51.436;7.356;2023-03-14T04:07:44;2.30;;;1.03;;
1505;SDS011;744;51.436;7.356;2023-03-14T04:10:11;2.20;;;0.97;;
1505;SDS011;744;51.436;7.356;2023-03-14T04:12:38;5.00;;;1.40;;
1505;SDS011;744;51.436;7.356;2023-03-14T04:15:05;2.97;;;1.00;;
1505;SDS011;744;51.436;7.356;2023-03-14T04:17:33;2.20;;;1.20;;
1505;SDS011;744;51.436;7.356;2023-03-14T04:19:59;1.33;;;0.80;;
1505;SDS011;744;51.436;7.356;2023-03-14T04:22:26;2.10;;;0.60;;
1505;SDS011;744;51.436;7.356;2023-03-14T04:24:53;2.30;;;0.80;;
1505;SDS011;744;51.436;7.356;2023-03-14T04:27:20;0.70;;;0.60;;
1505;SDS011;744;51.436;7.356;2023-03-14T04:29:47;3.97;;;0.87;;
1505;SDS011;744;51.436;7.356;2023-03-14T04:32:14;0.40;;;0.33;;
1505;SDS011;744;51.436;7.356;2023-03-14T04:34:41;4.13;;;1.30;;
1505;SDS011;744;51.436;7.356;2023-03-14T04:37:09;0.93;;;0.70;;
1505;SDS011;744;51.436;7.356;2023-03-14T04:39:38;2.30;;;1.10;;
1505;SDS011;744;51.436;7.356;2023-03-14T04:42:05;2.53;;;0.63;;
1505;SDS011;744;51.436;7.356;2023-03-14T04:44:32;1.77;;;0.80;;
1505;SDS011;744;51.436;7.356;2023-03-14T04:46:58;4.13;;;0.80;;
1505;SDS011;744;51.436;7.356;2023-03-14T04:49:27;3.20;;;1.30;;
1505;SDS011;744;51.436;7.356;2023-03-14T04:51:54;1.60;;;1.17;;
1505;SDS011;744;51.436;7.356;2023-03-14T04:54:21;3.37;;;0.87;;
1505;SDS011;744;51.436;7.356;2023-03-14T04:56:47;0.77;;;0.50;;
1505;SDS011;744;51.436;7.356;2023-03-14T04:59:14;4.10;;;3.13;;
1505;SDS011;744;51.436;7.356;2023-03-14T05:01:41;4.23;;;1.23;;
1505;SDS011;744;51.436;7.356;2023-03-14T05:04:08;1.53;;;0.93;;
1505;SDS011;744;51.436;7.356;2023-03-14T05:06:35;2.97;;;1.30;;
1505;SDS011;744;51.436;7.356;2023-03-14T05:09:03;2.27;;;1.10;;
1505;SDS011;744;51.436;7.356;2023-03-14T05:11:31;1.83;;;1.03;;
1505;SDS011;744;51.436;7.356;2023-03-14T05:13:58;3.47;;;1.27;;
1505;SDS011;744;51.436;7.356;2023-03-14T05:16:26;1.63;;;0.77;;
1505;SDS011;744;51.436;7.356;2023-03-14T05:18:53;6.03;;;2.07;;
1505;SDS011;744;51.436;7.356;2023-03-14T05:21:20;4.50;;;1.47;;
1505;SDS011;744;51.436;7.356;2023-03-14T05:23:46;2.40;;;1.37;;
1505;SDS011;744;51.436;7.356;2023-03-14T05:26:13;3.03;;;1.53;;
1505;SDS011;744;51.436;7.356;2023-03-14T05:28:42;4.33;;;1.20;;
1505;SDS011;744;51.436;7.356;2023-03-14T05:31:10;1.87;;;1.07;;
1505;SDS011;744;51.436;7.356;2023-03-14T05:33:37;1.60;;;0.87;;
1505;SDS011;744;51.436;7.356;2023-03-14T05:36:04;4.30;;;0.93;;
1505;SDS011;744;51.436;7.356;2023-03-14T05:38:31;1.63;;;0.90;;
1505;SDS011;744;51.436;7.356;2023-03-14T05:40:58;2.83;;;0.47;;
1505;SDS011;744;51.436;7.356;2023-03-14T05:43:25;4.50;;;0.70;;
1505;SDS011;744;51.436;7.356;2023-03-14T05:45:51;0.77;;;0.70;;
1505;SDS011;744;51.436;7.356;2023-03-14T05:48:18;1.43;;;0.70;;
1505;SDS011;744;51.436;7.356;2023-03-14T05:50:45;2.10;;;0.50;;
1505;SDS011;744;51.436;7.356;2023-03-14T05:53:12;4.20;;;1.70;;
1505;SDS011;744;51.436;7.356;2023-03-14T05:55:39;1.77;;;0.90;;
1505;SDS011;744;51.436;7.356;2023-03-14T05:58:06;1.13;;;1.03;;
1505;SDS011;744;51.436;7.356;2023-03-14T06:00:33;1.33;;;1.17;;
1505;SDS011;744;51.436;7.356;2023-03-14T06:03:00;3.93;;;1.10;;
1505;SDS011;744;51.436;7.356;2023-03-14T06:05:27;2.00;;;1.07;;
1505;SDS011;744;51.436;7.356;2023-03-14T06:07:53;4.17;;;1.23;;
1505;SDS011;744;51.436;7.356;2023-03-14T06:10:20;3.70;;;1.30;;
1505;SDS011;744;51.436;7.356;2023-03-14T06:12:47;1.87;;;1.10;;
1505;SDS011;744;51.436;7.356;2023-03-14T06:15:14;5.43;;;0.80;;
1505;SDS011;744;51.436;7.356;2023-03-14T06:17:41;0.77;;;0.50;;
1505;SDS011;744;51.436;7.356;2023-03-14T06:20:08;1.00;;;0.90;;
1505;SDS011;744;51.436;7.356;2023-03-14T06:22:36;7.40;;;1.10;;
1505;SDS011;744;51.436;7.356;2023-03-14T06:25:04;1.63;;;0.90;;
1505;SDS011;744;51.436;7.356;2023-03-14T06:27:31;1.20;;;1.07;;
1505;SDS011;744;51.436;7.356;2023-03-14T06:29:59;3.13;;;0.63;;
1505;SDS011;744;51.436;7.356;2023-03-14T06:32:25;3.33;;;1.27;;
1505;SDS011;744;51.436;7.356;2023-03-14T06:34:52;3.40;;;0.83;;
1505;SDS011;744;51.436;7.356;2023-03-14T06:37:19;2.53;;;1.20;;
1505;SDS011;744;51.436;7.356;2023-03-14T06:39:46;1.27;;;0.97;;
1505;SDS011;744;51.436;7.356;2023-03-14T06:42:13;2.50;;;1.33;;
1505;SDS011;744;51.436;7.356;2023-03-14T06:44:40;2.73;;;0.87;;
1505;SDS011;744;51.436;7.356;2023-03-14T06:47:07;2.40;;;1.80;;
1505;SDS011;744;51.436;7.356;2023-03-14T06:49:34;3.20;;;0.90;;
1505;SDS011;744;51.436;7.356;2023-03-14T06:52:01;2.30;;;0.70;;
1505;SDS011;744;51.436;7.356;2023-03-14T06:54:28;0.77;;;0.67;;
1505;SDS011;744;51.436;7.356;2023-03-14T06:56:55;1.60;;;0.70;;
1505;SDS011;744;51.436;7.356;2023-03-14T06:59:22;2.23;;;0.93;;
1505;SDS011;744;51.436;7.356;2023-03-14T07:01:49;1.43;;;0.97;;
1505;SDS011;744;51.436;7.356;2023-03-14T07:04:17;1.30;;;1.10;;
1505;SDS011;744;51.436;7.356;2023-03-14T07:06:44;2.30;;;0.83;;
1505;SDS011;744;51.436;7.356;2023-03-14T07:09:12;0.97;;;0.70;;
1505;SDS011;744;51.436;7.356;2023-03-14T07:11:40;1.30;;;0.70;;
1505;SDS011;744;51.436;7.356;2023-03-14T07:14:06;3.63;;;0.83;;
1505;SDS011;744;51.436;7.356;2023-03-14T07:16:33;0.73;;;0.73;;
1505;SDS011;744;51.436;7.356;2023-03-14T07:19:00;0.90;;;0.70;;
1505;SDS011;744;51.436;7.356;2023-03-14T07:21:31;2.27;;;0.87;;
1505;SDS011;744;51.436;7.356;2023-03-14T07:23:59;0.50;;;0.50;;
1505;SDS011;744;51.436;7.356;2023-03-14T07:26:25;4.20;;;1.63;;
1505;SDS011;744;51.436;7.356;2023-03-14T07:28:52;5.20;;;1.00;;
1505;SDS011;744;51.436;7.356;2023-03-14T07:31:19;0.70;;;0.70;;
1505;SDS011;744;51.436;7.356;2023-03-14T07:33:46;1.40;;;0.90;;
1505;SDS011;744;51.436;7.356;2023-03-14T07:36:13;1.00;;;0.50;;
1505;SDS011;744;51.436;7.356;2023-03-14T07:38:40;1.70;;;0.90;;
1505;SDS011;744;51.436;7.356;2023-03-14T07:41:10;1.50;;;0.80;;
1505;SDS011;744;51.436;7.356;2023-03-14T07:43:37;0.70;;;0.37;;
1505;SDS011;744;51.436;7.356;2023-03-14T07:46:04;0.73;;;0.67;;
1505;SDS011;744;51.436;7.356;2023-03-14T07:48:31;0.60;;;0.57;;
1505;SDS011;744;51.436;7.356;2023-03-14T07:50:58;2.63;;;0.63;;
1505;SDS011;744;51.436;7.356;2023-03-14T07:53:25;1.60;;;0.57;;
1505;SDS011;744;51.436;7.356;2023-03-14T07:55:53;2.10;;;0.77;;
1505;SDS011;744;51.436;7.356;2023-03-14T07:58:20;0.60;;;0.50;;
1505;SDS011;744;51.436;7.356;2023-03-14T08:00:48;0.57;;;0.57;;
1505;SDS011;744;51.436;7.356;2023-03-14T08:03:16;2.83;;;0.90;;
1505;SDS011;744;51.436;7.356;2023-03-14T08:05:46;0.67;;;0.50;;
1505;SDS011;744;51.436;7.356;2023-03-14T08:08:15;0.60;;;0.50;;
1505;SDS011;744;51.436;7.356;2023-03-14T08:10:43;1.53;;;1.00;;
1505;SDS011;744;51.436;7.356;2023-03-14T08:13:10;1.70;;;0.70;;
1505;SDS011;744;51.436;7.356;2023-03-14T08:15:37;1.87;;;1.17;;
1505;SDS011;744;51.436;7.356;2023-03-14T08:18:04;2.83;;;1.00;;
1505;SDS011;744;51.436;7.356;2023-03-14T08:20:32;3.10;;;1.37;;
1505;SDS011;744;51.436;7.356;2023-03-14T08:22:59;1.63;;;1.17;;
1505;SDS011;744;51.436;7.356;2023-03-14T08:25:28;2.20;;;1.13;;
1505;SDS011;744;51.436;7.356;2023-03-14T08:27:55;1.13;;;1.07;;
1505;SDS011;744;51.436;7.356;2023-03-14T08:30:22;1.23;;;1.13;;
1505;SDS011;744;51.436;7.356;2023-03-14T08:32:49;1.63;;;1.03;;
1505;SDS011;744;51.436;7.356;2023-03-14T08:35:16;1.23;;;1.13;;
1505;SDS011;744;51.436;7.356;2023-03-14T08:37:44;1.73;;;1.63;;
1505;SDS011;744;51.436;7.356;2023-03-14T08:40:11;3.33;;;1.60;;
1505;SDS011;744;51.436;7.356;2023-03-14T08:42:38;2.30;;;1.13;;
1505;SDS011;744;51.436;7.356;2023-03-14T08:45:06;1.93;;;1.77;;
1505;SDS011;744;51.436;7.356;2023-03-14T08:47:35;1.53;;;1.30;;
1505;SDS011;744;51.436;7.356;2023-03-14T08:50:02;2.40;;;1.60;;
1505;SDS011;744;51.436;7.356;2023-03-14T08:52:30;1.53;;;1.17;;
1505;SDS011;744;51.436;7.356;2023-03-14T08:54:57;1.53;;;1.43;;
1505;SDS011;744;51.436;7.356;2023-03-14T08:57:25;1.30;;;1.10;;
1505;SDS011;744;51.436;7.356;2023-03-14T08:59:55;2.00;;;1.63;;
1505;SDS011;744;51.436;7.356;2023-03-14T09:02:23;2.07;;;1.43;;
1505;SDS011;744;51.436;7.356;2023-03-14T09:04:52;2.80;;;1.70;;
1505;SDS011;744;51.436;7.356;2023-03-14T09:07:19;2.40;;;1.90;;
1505;SDS011;744;51.436;7.356;2023-03-14T09:09:46;1.60;;;1.50;;
1505;SDS011;744;51.436;7.356;2023-03-14T09:12:14;1.60;;;1.50;;
1505;SDS011;744;51.436;7.356;2023-03-14T09:14:41;1.70;;;1.60;;
1505;SDS011;744;51.436;7.356;2023-03-14T09:17:08;2.83;;;2.17;;
1505;SDS011;744;51.436;7.356;2023-03-14T09:19:35;2.00;;;1.80;;
1505;SDS011;744;51.436;7.356;2023-03-14T09:22:02;1.77;;;1.63;;
1505;SDS011;744;51.436;7.356;2023-03-14T09:24:29;1.77;;;1.67;;
1505;SDS011;744;51.436;7.356;2023-03-14T09:26:56;1.53;;;1.43;;
1505;SDS011;744;51.436;7.356;2023-03-14T09:29:24;2.03;;;1.60;;
1505;SDS011;744;51.436;7.356;2023-03-14T09:31:51;5.00;;;2.03;;
1505;SDS011;744;51.436;7.356;2023-03-14T09:34:21;2.40;;;2.20;;
1505;SDS011;744;51.436;7.356;2023-03-14T09:36:48;2.30;;;1.67;;
1505;SDS011;744;51.436;7.356;2023-03-14T09:39:15;1.37;;;1.10;;
1505;SDS011;744;51.436;7.356;2023-03-14T09:41:44;2.87;;;0.60;;
1505;SDS011;744;51.436;7.356;2023-03-14T09:44:14;1.27;;;0.60;;
1505;SDS011;744;51.436;7.356;2023-03-14T09:46:46;1.13;;;0.60;;
1505;SDS011;744;51.436;7.356;2023-03-14T09:51:56;0.30;;;0.30;;
1505;SDS011;744;51.436;7.356;2023-03-14T09:54:34;0.70;;;0.40;;
1505;SDS011;744;51.436;7.356;2023-03-14T09:57:04;1.37;;;0.60;;
1505;SDS011;744;51.436;7.356;2023-03-14T09:59:36;1.43;;;0.50;;
1505;SDS011;744;51.436;7.356;2023-03-14T10:02:11;0.90;;;0.90;;
1505;SDS011;744;51.436;7.356;2023-03-14T10:04:54;2.20;;;0.70;;
1505;SDS011;744;51.436;7.356;2023-03-14T10:07:23;2.17;;;1.00;;
1505;SDS011;744;51.436;7.356;2023-03-14T10:09:56;1.37;;;1.27;;
1505;SDS011;744;51.436;7.356;2023-03-14T10:12:34;6.53;;;0.70;;
1505;SDS011;744;51.436;7.356;2023-03-14T10:15:04;0.70;;;0.70;;
1505;SDS011;744;51.436;7.356;2023-03-14T10:17:49;1.47;;;1.20;;
1505;SDS011;744;51.436;7.356;2023-03-14T10:20:29;1.13;;;0.80;;
1505;SDS011;744;51.436;7.356;2023-03-14T10:23:42;0.97;;;0.63;;
1505;SDS011;744;51.436;7.356;2023-03-14T10:26:06;3.27;;;2.10;;
1505;SDS011;744;51.436;7.356;2023-03-14T10:28:45;0.53;;;0.53;;
1505;SDS011;744;51.436;7.356;2023-03-14T10:31:14;1.37;;;1.20;;
1505;SDS011;744;51.436;7.356;2023-03-14T10:33:41;1.17;;;0.73;;
1505;SDS011;744;51.436;7.356;2023-03-14T10:36:23;1.80;;;1.10;;
1505;SDS011;744;51.436;7.356;2023-03-14T10:38:58;1.23;;;0.90;;
1505;SDS011;744;51.436;7.356;2023-03-14T10:41:50;0.90;;;0.90;;
1505;SDS011;744;51.436;7.356;2023-03-14T10:44:25;1.67;;;0.80;;
1505;SDS011;744;51.436;7.356;2023-03-14T10:47:00;0.80;;;0.80;;
1505;SDS011;744;51.436;7.356;2023-03-14T10:49:30;0.70;;;0.70;;
1505;SDS011;744;51.436;7.356;2023-03-14T10:52:12;1.73;;;1.10;;
1505;SDS011;744;51.436;7.356;2023-03-14T10:54:40;1.37;;;1.00;;
1505;SDS011;744;51.436;7.356;2023-03-14T10:57:10;1.90;;;1.80;;
1505;SDS011;744;51.436;7.356;2023-03-14T10:59:39;1.80;;;1.70;;
1505;SDS011;744;51.436;7.356;2023-03-14T11:08:16;1.47;;;1.37;;
1505;SDS011;744;51.436;7.356;2023-03-14T11:11:16;2.70;;;1.53;;
1505;SDS011;744;51.436;7.356;2023-03-14T11:22:02;3.00;;;0.93;;
1505;SDS011;744;51.436;7.356;2023-03-14T11:24:49;1.40;;;0.60;;
1505;SDS011;744;51.436;7.356;2023-03-14T11:27:34;3.90;;;0.60;;
1505;SDS011;744;51.436;7.356;2023-03-14T11:30:29;0.80;;;0.80;;
1505;SDS011;744;51.436;7.356;2023-03-14T11:36:06;1.00;;;0.80;;
1505;SDS011;744;51.436;7.356;2023-03-14T11:38:48;3.37;;;1.20;;
1505;SDS011;744;51.436;7.356;2023-03-14T11:41:23;1.97;;;1.40;;
1505;SDS011;744;51.436;7.356;2023-03-14T11:43:58;2.57;;;1.03;;
1505;SDS011;744;51.436;7.356;2023-03-14T11:51:53;1.23;;;0.87;;
1505;SDS011;744;51.436;7.356;2023-03-14T11:54:31;2.93;;;1.07;;
1505;SDS011;744;51.436;7.356;2023-03-14T11:57:16;1.20;;;1.10;;
1505;SDS011;744;51.436;7.356;2023-03-14T12:03:14;0.90;;;0.60;;
1505;SDS011;744;51.436;7.356;2023-03-14T12:13:23;1.73;;;0.90;;
1505;SDS011;744;51.436;7.356;2023-03-14T12:15:57;1.23;;;1.07;;
1505;SDS011;744;51.436;7.356;2023-03-14T12:18:26;1.10;;;0.90;;
1505;SDS011;744;51.436;7.356;2023-03-14T12:21:06;0.80;;;0.80;;
1505;SDS011;744;51.436;7.356;2023-03-14T12:28:50;2.73;;;0.97;;
1505;SDS011;744;51.436;7.356;2023-03-14T12:45:14;1.73;;;0.80;;
1505;SDS011;744;51.436;7.356;2023-03-14T12:47:53;3.33;;;1.00;;
1505;SDS011;744;51.436;7.356;2023-03-14T12:50:24;0.70;;;0.70;;
1505;SDS011;744;51.436;7.356;2023-03-14T12:55:33;2.23;;;0.80;;
1505;SDS011;744;51.436;7.356;2023-03-14T13:00:55;3.80;;;0.83;;
1505;SDS011;744;51.436;7.356;2023-03-14T13:03:36;3.83;;;1.40;;
1505;SDS011;744;51.436;7.356;2023-03-14T13:12:13;2.73;;;1.10;;
1505;SDS011;744;51.436;7.356;2023-03-14T13:14:47;3.00;;;1.27;;
1505;SDS011;744;51.436;7.356;2023-03-14T13:17:19;3.07;;;1.10;;
1505;SDS011;744;51.436;7.356;2023-03-14T13:20:02;2.47;;;1.10;;
1505;SDS011;744;51.436;7.356;2023-03-14T13:22:35;3.37;;;1.00;;
1505;SDS011;744;51.436;7.356;2023-03-14T13:25:05;6.90;;;1.57;;
1505;SDS011;744;51.436;7.356;2023-03-14T13:27:36;4.70;;;1.37;;
1505;SDS011;744;51.436;7.356;2023-03-14T13:32:40;5.67;;;2.37;;
1505;SDS011;744;51.436;7.356;2023-03-14T13:35:24;7.77;;;1.90;;
1505;SDS011;744;51.436;7.356;2023-03-14T13:37:54;4.33;;;1.83;;
1505;SDS011;744;51.436;7.356;2023-03-14T13:40:37;13.87;;;2.17;;
1505;SDS011;744;51.436;7.356;2023-03-14T13:43:14;7.60;;;2.00;;
1505;SDS011;744;51.436;7.356;2023-03-14T13:46:12;8.43;;;2.30;;
1505;SDS011;744;51.436;7.356;2023-03-14T13:48:47;7.80;;;2.10;;
1505;SDS011;744;51.436;7.356;2023-03-14T13:51:25;7.97;;;2.30;;
1505;SDS011;744;51.436;7.356;2023-03-14T13:53:55;8.30;;;2.23;;
1505;SDS011;744;51.436;7.356;2023-03-14T13:56:24;9.93;;;2.40;;
1505;SDS011;744;51.436;7.356;2023-03-14T13:58:54;10.10;;;2.73;;
1505;SDS011;744;51.436;7.356;2023-03-14T14:01:22;7.33;;;2.50;;
1505;SDS011;744;51.436;7.356;2023-03-14T14:04:06;6.03;;;2.67;;
1505;SDS011;744;51.436;7.356;2023-03-14T14:06:35;13.23;;;3.27;;
1505;SDS011;744;51.436;7.356;2023-03-14T14:09:12;12.17;;;2.37;;
1505;SDS011;744;51.436;7.356;2023-03-14T14:14:43;7.80;;;2.67;;
1505;SDS011;744;51.436;7.356;2023-03-14T14:17:12;5.70;;;2.63;;
1505;SDS011;744;51.436;7.356;2023-03-14T14:19:43;8.13;;;2.80;;
1505;SDS011;744;51.436;7.356;2023-03-14T14:22:10;9.50;;;2.70;;
1505;SDS011;744;51.436;7.356;2023-03-14T14:24:38;8.97;;;3.60;;
1505;SDS011;744;51.436;7.356;2023-03-14T14:27:13;17.37;;;5.07;;
1505;SDS011;744;51.436;7.356;2023-03-14T14:29:43;12.40;;;3.23;;
1505;SDS011;744;51.436;7.356;2023-03-14T14:32:22;9.10;;;2.83;;
1505;SDS011;744;51.436;7.356;2023-03-14T14:34:59;9.37;;;2.90;;
1505;SDS011;744;51.436;7.356;2023-03-14T14:37:27;7.93;;;2.80;;
1505;SDS011;744;51.436;7.356;2023-03-14T14:39:57;10.10;;;2.83;;
1505;SDS011;744;51.436;7.356;2023-03-14T14:42:30;14.37;;;3.67;;
1505;SDS011;744;51.436;7.356;2023-03-14T14:44:58;5.77;;;2.10;;
1505;SDS011;744;51.436;7.356;2023-03-14T14:47:27;8.47;;;3.27;;
1505;SDS011;744;51.436;7.356;2023-03-14T14:49:55;8.83;;;2.40;;
1505;SDS011;744;51.436;7.356;2023-03-14T14:55:12;11.97;;;3.40;;
1505;SDS011;744;51.436;7.356;2023-03-14T14:57:50;5.97;;;2.13;;
1505;SDS011;744;51.436;7.356;2023-03-14T15:00:20;6.77;;;1.63;;
1505;SDS011;744;51.436;7.356;2023-03-14T15:02:49;10.10;;;1.80;;
1505;SDS011;744;51.436;7.356;2023-03-14T15:05:22;11.90;;;2.50;;
1505;SDS011;744;51.436;7.356;2023-03-14T15:07:50;9.77;;;2.30;;
1505;SDS011;744;51.436;7.356;2023-03-14T15:10:23;8.20;;;1.73;;
1505;SDS011;744;51.436;7.356;2023-03-14T15:12:51;8.07;;;1.70;;
1505;SDS011;744;51.436;7.356;2023-03-14T15:15:19;12.60;;;2.47;;
1505;SDS011;744;51.436;7.356;2023-03-14T15:17:46;5.87;;;1.70;;
1505;SDS011;744;51.436;7.356;2023-03-14T15:20:14;4.30;;;1.50;;
1505;SDS011;744;51.436;7.356;2023-03-14T15:22:42;10.93;;;1.73;;
1505;SDS011;744;51.436;7.356;2023-03-14T15:25:09;14.83;;;2.33;;
1505;SDS011;744;51.436;7.356;2023-03-14T15:27:57;3.70;;;1.27;;
1505;SDS011;744;51.436;7.356;2023-03-14T15:30:24;7.33;;;1.53;;
1505;SDS011;744;51.436;7.356;2023-03-14T15:32:51;6.50;;;1.63;;
1505;SDS011;744;51.436;7.356;2023-03-14T15:35:18;3.60;;;1.50;;
1505;SDS011;744;51.436;7.356;2023-03-14T15:37:45;6.43;;;1.27;;
1505;SDS011;744;51.436;7.356;2023-03-14T15:40:12;6.80;;;1.60;;
1505;SDS011;744;51.436;7.356;2023-03-14T15:42:40;3.83;;;1.60;;
1505;SDS011;744;51.436;7.356;2023-03-14T15:45:08;6.60;;;2.37;;
1505;SDS011;744;51.436;7.356;2023-03-14T15:47:35;6.23;;;2.20;;
1505;SDS011;744;51.436;7.356;2023-03-14T15:50:02;6.87;;;1.80;;
1505;SDS011;744;51.436;7.356;2023-03-14T15:52:37;5.87;;;1.67;;
1505;SDS011;744;51.436;7.356;2023-03-14T15:55:04;3.73;;;1.30;;
1505;SDS011;744;51.436;7.356;2023-03-14T15:57:31;8.03;;;4.00;;
1505;SDS011;744;51.436;7.356;2023-03-14T15:59:58;6.33;;;1.67;;
1505;SDS011;744;51.436;7.356;2023-03-14T16:02:25;7.27;;;1.67;;
1505;SDS011;744;51.436;7.356;2023-03-14T16:04:52;3.00;;;1.03;;
1505;SDS011;744;51.436;7.356;2023-03-14T16:07:19;6.20;;;1.90;;
1505;SDS011;744;51.436;7.356;2023-03-14T16:09:46;4.67;;;1.30;;
1505;SDS011;744;51.436;7.356;2023-03-14T16:12:13;7.33;;;3.60;;
1505;SDS011;744;51.436;7.356;2023-03-14T16:14:40;5.03;;;1.33;;
1505;SDS011;744;51.436;7.356;2023-03-14T16:17:09;5.30;;;1.60;;
1505;SDS011;744;51.436;7.356;2023-03-14T16:19:37;3.40;;;0.97;;
1505;SDS011;744;51.436;7.356;2023-03-14T16:22:03;5.90;;;1.30;;
1505;SDS011;744;51.436;7.356;2023-03-14T16:24:30;4.80;;;1.40;;
1505;SDS011;744;51.436;7.356;2023-03-14T16:26:58;7.40;;;1.80;;
1505;SDS011;744;51.436;7.356;2023-03-14T16:29:26;6.40;;;1.57;;
1505;SDS011;744;51.436;7.356;2023-03-14T16:31:53;2.53;;;1.03;;
1505;SDS011;744;51.436;7.356;2023-03-14T16:34:21;2.43;;;1.10;;
1505;SDS011;744;51.436;7.356;2023-03-14T16:36:48;3.90;;;0.80;;
1505;SDS011;744;51.436;7.356;2023-03-14T16:39:17;4.27;;;1.37;;
1505;SDS011;744;51.436;7.356;2023-03-14T16:41:45;2.97;;;1.03;;
1505;SDS011;744;51.436;7.356;2023-03-14T16:44:12;7.20;;;1.60;;
1505;SDS011;744;51.436;7.356;2023-03-14T16:46:38;4.93;;;1.63;;
1505;SDS011;744;51.436;7.356;2023-03-14T16:49:06;3.30;;;1.07;;
1505;SDS011;744;51.436;7.356;2023-03-14T16:51:33;5.77;;;0.80;;
1505;SDS011;744;51.436;7.356;2023-03-14T16:54:00;2.50;;;1.00;;
1505;SDS011;744;51.436;7.356;2023-03-14T16:56:27;11.03;;;1.77;;
1505;SDS011;744;51.436;7.356;2023-03-14T16:58:54;4.80;;;1.40;;
1505;SDS011;744;51.436;7.356;2023-03-14T17:01:21;4.60;;;1.37;;
1505;SDS011;744;51.436;7.356;2023-03-14T17:03:50;2.13;;;0.87;;
1505;SDS011;744;51.436;7.356;2023-03-14T17:06:23;4.57;;;1.27;;
1505;SDS011;744;51.436;7.356;2023-03-14T17:08:52;2.00;;;1.10;;
1505;SDS011;744;51.436;7.356;2023-03-14T17:11:21;1.33;;;0.80;;